createdAt,value
2023-05-16T00:02:24.965Z,53.20
2023-05-16T00:04:51.581Z,53.60
2023-05-16T00:07:18.071Z,53.50
2023-05-16T00:09:44.573Z,53.40
2023-05-16T00:12:11.140Z,53.90
2023-05-16T00:14:37.645Z,53.70
2023-05-16T00:17:04.220Z,53.70
2023-05-16T00:19:30.790Z,53.40
2023-05-16T00:21:57.300Z,53.50
2023-05-16T00:24:23.845Z,53.60
2023-05-16T00:26:50.354Z,53.30
2023-05-16T00:29:16.832Z,53.50
2023-05-16T00:31:43.375Z,53.80
2023-05-16T00:34:09.906Z,53.50
2023-05-16T00:36:36.399Z,54.10
2023-05-16T00:39:02.914Z,53.90
2023-05-16T00:41:29.369Z,53.50
2023-05-16T00:43:55.886Z,53.70
2023-05-16T00:46:22.382Z,53.70
2023-05-16T00:48:48.901Z,53.40
2023-05-16T00:51:15.398Z,53.40
2023-05-16T00:53:41.881Z,53.80
2023-05-16T00:56:08.381Z,53.50
2023-05-16T00:58:34.930Z,53.30
2023-05-16T01:01:01.431Z,53.30
2023-05-16T01:03:28.101Z,53.50
2023-05-16T01:05:54.642Z,53.20
2023-05-16T01:08:21.127Z,53.40
2023-05-16T01:10:47.638Z,53.30
2023-05-16T01:13:14.142Z,53.80
2023-05-16T01:15:40.645Z,53.50
2023-05-16T01:18:07.122Z,53.20
2023-05-16T01:20:33.671Z,53.70
2023-05-16T01:23:00.164Z,53.40
2023-05-16T01:25:26.820Z,53.70
2023-05-16T01:27:53.539Z,53.30
2023-05-16T01:30:20.033Z,53.30
2023-05-16T01:32:46.618Z,53.60
2023-05-16T01:35:13.174Z,53.10
2023-05-16T01:37:39.642Z,53.70
2023-05-16T01:40:06.137Z,53.30
2023-05-16T01:42:32.614Z,53.70
2023-05-16T01:44:59.111Z,53.70
2023-05-16T01:47:25.625Z,53.70
2023-05-16T01:52:19.148Z,53.40
2023-05-16T01:54:45.627Z,53.60
2023-05-16T01:57:12.086Z,53.70
2023-05-16T01:59:38.591Z,53.80
2023-05-16T02:02:05.095Z,53.70
2023-05-16T02:04:31.592Z,53.20
2023-05-16T02:06:58.092Z,53.40
2023-05-16T02:09:24.552Z,53.00
2023-05-16T02:11:51.049Z,53.20
2023-05-16T02:14:17.526Z,53.30
2023-05-16T02:16:44.048Z,53.10
2023-05-16T02:19:10.639Z,53.20
2023-05-16T02:21:37.138Z,53.30
2023-05-16T02:24:03.596Z,53.20
2023-05-16T02:26:30.052Z,53.10
2023-05-16T02:28:56.536Z,53.30
2023-05-16T02:31:23.081Z,53.10
2023-05-16T02:33:49.595Z,53.10
2023-05-16T02:36:16.104Z,53.70
2023-05-16T02:38:42.610Z,53.60
2023-05-16T02:41:09.085Z,53.30
2023-05-16T02:43:35.538Z,53.60
2023-05-16T02:46:02.015Z,53.30
2023-05-16T02:48:28.541Z,53.70
2023-05-16T02:50:54.999Z,53.70
2023-05-16T02:53:21.463Z,53.30
2023-05-16T02:55:47.951Z,53.60
2023-05-16T02:58:14.422Z,53.10
2023-05-16T03:00:40.904Z,53.20
2023-05-16T03:03:07.495Z,53.30
2023-05-16T03:05:33.995Z,53.20
2023-05-16T03:08:00.506Z,53.30
2023-05-16T03:10:26.989Z,53.70
2023-05-16T03:12:53.444Z,53.10
2023-05-16T03:15:19.934Z,53.40
2023-05-16T03:17:46.504Z,53.10
2023-05-16T03:20:13.000Z,53.40
2023-05-16T03:22:39.492Z,53.20
2023-05-16T03:27:33.055Z,53.20
2023-05-16T03:29:59.564Z,53.60
2023-05-16T03:32:26.088Z,53.20
2023-05-16T03:34:52.644Z,53.60
2023-05-16T03:37:19.150Z,53.20
2023-05-16T03:39:45.631Z,53.10
2023-05-16T03:42:12.129Z,53.30
2023-05-16T03:44:38.631Z,53.10
2023-05-16T03:47:05.130Z,53.60
2023-05-16T03:49:31.589Z,53.40
2023-05-16T03:51:58.054Z,53.50
2023-05-16T03:54:24.517Z,53.40
2023-05-16T03:56:51.014Z,53.50
2023-05-16T03:59:17.473Z,53.30
2023-05-16T04:01:44.006Z,53.50
2023-05-16T04:04:10.514Z,53.40
2023-05-16T04:06:36.966Z,53.70
2023-05-16T04:09:03.421Z,53.10
2023-05-16T04:11:30.079Z,53.00
2023-05-16T04:13:57.184Z,53.20
2023-05-16T04:16:23.804Z,53.00
2023-05-16T04:18:50.365Z,53.50
2023-05-16T04:21:16.877Z,53.50
2023-05-16T04:23:43.334Z,52.80
2023-05-16T04:26:09.823Z,53.10
2023-05-16T04:28:36.299Z,53.10
2023-05-16T04:31:02.771Z,53.60
2023-05-16T04:33:29.241Z,53.70
2023-05-16T04:35:55.690Z,53.10
2023-05-16T04:38:22.190Z,53.60
2023-05-16T04:40:48.656Z,53.50
2023-05-16T04:43:15.136Z,53.30
2023-05-16T04:45:41.589Z,53.00
2023-05-16T04:48:08.176Z,53.20
2023-05-16T04:50:34.723Z,53.10
2023-05-16T04:53:01.180Z,53.50
2023-05-16T04:55:27.921Z,52.90
2023-05-16T04:57:54.585Z,53.20
2023-05-16T05:00:21.106Z,53.40
2023-05-16T05:02:47.681Z,53.30
2023-05-16T05:05:14.259Z,53.50
2023-05-16T05:07:40.756Z,53.30
2023-05-16T05:10:07.261Z,53.70
2023-05-16T05:12:33.783Z,53.70
2023-05-16T05:15:00.344Z,54.20
2023-05-16T05:17:26.917Z,53.80
2023-05-16T05:22:20.481Z,53.30
2023-05-16T05:24:46.988Z,54.10
2023-05-16T05:27:13.457Z,53.90
2023-05-16T05:29:39.930Z,53.90
2023-05-16T05:32:06.470Z,53.70
2023-05-16T05:34:33.054Z,53.00
2023-05-16T05:36:59.488Z,53.90
2023-05-16T05:39:25.963Z,53.70
2023-05-16T05:41:52.421Z,53.40
2023-05-16T05:44:18.953Z,53.70
2023-05-16T05:46:45.456Z,53.40
2023-05-16T05:49:11.904Z,53.60
2023-05-16T05:51:38.402Z,54.00
2023-05-16T05:54:04.892Z,53.20
2023-05-16T05:56:31.384Z,53.00
2023-05-16T05:58:57.897Z,52.90
2023-05-16T06:03:51.433Z,53.10
2023-05-16T06:06:17.930Z,52.90
2023-05-16T06:08:44.424Z,53.60
2023-05-16T06:13:37.894Z,53.50
2023-05-16T06:16:04.410Z,53.20
2023-05-16T06:18:30.958Z,53.00
2023-05-16T06:20:57.477Z,53.60
2023-05-16T06:23:23.965Z,54.10
2023-05-16T06:25:50.420Z,53.10
2023-05-16T06:28:16.911Z,53.10
2023-05-16T06:30:43.395Z,53.00
2023-05-16T06:33:09.875Z,53.00
2023-05-16T06:35:36.494Z,53.30
2023-05-16T06:38:02.961Z,53.10
2023-05-16T06:40:29.491Z,53.10
2023-05-16T06:42:56.020Z,53.10
2023-05-16T06:45:22.508Z,53.20
2023-05-16T06:47:49.042Z,53.30
2023-05-16T06:50:15.646Z,53.30
2023-05-16T06:52:42.183Z,53.30
2023-05-16T06:55:08.889Z,53.60
2023-05-16T06:57:35.422Z,52.30
2023-05-16T07:00:01.957Z,53.30
2023-05-16T07:04:55.785Z,53.00
2023-05-16T07:07:22.303Z,53.20
2023-05-16T07:09:48.818Z,53.00
2023-05-16T07:12:15.330Z,53.60
2023-05-16T07:14:41.854Z,53.00
2023-05-16T07:17:08.506Z,53.10
2023-05-16T07:19:35.082Z,52.90
2023-05-16T07:24:28.636Z,53.40
2023-05-16T07:26:55.277Z,53.20
2023-05-16T07:29:21.786Z,53.00
2023-05-16T07:31:48.413Z,53.00
2023-05-16T07:34:15.001Z,53.10
2023-05-16T07:36:41.491Z,53.30
2023-05-16T07:39:08.055Z,53.60
2023-05-16T07:41:34.567Z,53.10
2023-05-16T07:44:01.099Z,53.20
2023-05-16T07:46:29.856Z,53.50
2023-05-16T07:48:56.468Z,53.00
2023-05-16T07:53:50.081Z,53.70
2023-05-16T07:56:16.647Z,53.20
2023-05-16T07:58:43.178Z,53.30
2023-05-16T08:01:09.715Z,53.30
2023-05-16T08:03:36.305Z,53.00
2023-05-16T08:06:03.082Z,53.50
2023-05-16T08:08:29.682Z,53.50
2023-05-16T08:10:56.189Z,53.40
2023-05-16T08:13:22.718Z,53.00
2023-05-16T08:15:49.318Z,53.50
2023-05-16T08:18:15.886Z,52.90
2023-05-16T08:20:42.408Z,53.30
2023-05-16T08:23:08.931Z,53.60
2023-05-16T08:25:35.467Z,53.00
2023-05-16T08:28:02.031Z,53.60
2023-05-16T08:30:28.554Z,52.90
2023-05-16T08:32:55.095Z,52.80
2023-05-16T08:35:21.697Z,51.90
2023-05-16T08:37:48.199Z,53.00
2023-05-16T08:40:14.965Z,53.00
2023-05-16T08:42:42.795Z,53.00
2023-05-16T08:45:10.625Z,52.90
2023-05-16T08:47:37.177Z,53.00
2023-05-16T08:50:03.670Z,52.60
2023-05-16T08:52:30.200Z,53.00
2023-05-16T08:55:09.151Z,52.90
2023-05-16T08:57:37.162Z,52.90
2023-05-16T09:00:03.676Z,53.20
2023-05-16T09:02:30.241Z,53.00
2023-05-16T09:04:56.759Z,53.30
2023-05-16T09:07:23.399Z,52.60
2023-05-16T09:09:49.904Z,52.90
2023-05-16T09:12:16.501Z,52.90
2023-05-16T09:14:43.038Z,52.90
2023-05-16T09:17:12.361Z,53.30
2023-05-16T09:19:39.159Z,52.90
2023-05-16T09:22:05.796Z,52.60
2023-05-16T09:24:32.329Z,53.40
2023-05-16T09:26:58.852Z,53.30
2023-05-16T09:29:25.352Z,52.40
2023-05-16T09:31:51.925Z,52.90
2023-05-16T09:34:18.485Z,52.20
2023-05-16T09:36:45.004Z,53.30
2023-05-16T09:39:11.484Z,53.30
2023-05-16T09:41:37.960Z,53.50
2023-05-16T09:44:04.505Z,52.90
2023-05-16T09:46:31.140Z,53.00
2023-05-16T09:48:57.675Z,52.70
2023-05-16T09:51:24.204Z,56.60
2023-05-16T09:53:50.714Z,53.20
2023-05-16T09:56:17.235Z,52.50
2023-05-16T09:58:43.784Z,52.30
2023-05-16T10:01:10.330Z,52.90
2023-05-16T10:03:36.978Z,52.60
2023-05-16T10:06:03.674Z,53.30
2023-05-16T10:08:30.156Z,52.60
2023-05-16T10:13:23.813Z,52.60
2023-05-16T10:15:50.398Z,53.20
2023-05-16T10:18:16.967Z,53.30
2023-05-16T10:20:43.556Z,52.90
2023-05-16T10:23:10.084Z,53.20
2023-05-16T10:25:36.619Z,51.90
2023-05-16T10:28:03.191Z,52.80
2023-05-16T10:32:56.909Z,52.70
2023-05-16T10:35:23.449Z,53.10
2023-05-16T10:37:49.971Z,53.00
2023-05-16T10:40:17.217Z,53.30
2023-05-16T10:42:43.850Z,52.70
2023-05-16T10:45:10.400Z,52.40
2023-05-16T10:47:37.021Z,52.60
2023-05-16T10:50:03.570Z,53.30
2023-05-16T10:52:30.084Z,53.10
2023-05-16T10:54:56.605Z,52.80
2023-05-16T10:57:23.120Z,52.70
2023-05-16T10:59:49.682Z,53.30
2023-05-16T11:02:16.234Z,52.80
2023-05-16T11:04:42.800Z,53.20
2023-05-16T11:07:09.320Z,52.70
2023-05-16T11:09:35.831Z,53.10
2023-05-16T11:12:02.338Z,52.80
2023-05-16T11:14:28.915Z,53.30
2023-05-16T11:16:55.646Z,52.70
2023-05-16T11:19:22.305Z,52.80
2023-05-16T11:21:48.895Z,52.70
2023-05-16T11:24:15.405Z,53.20
2023-05-16T11:26:41.941Z,53.20
2023-05-16T11:29:08.479Z,52.80
2023-05-16T11:31:35.004Z,52.60
2023-05-16T11:34:01.595Z,53.20
2023-05-16T11:36:28.129Z,52.60
2023-05-16T11:38:54.679Z,53.20
2023-05-16T11:41:21.171Z,52.60
2023-05-16T11:43:47.748Z,53.10
2023-05-16T11:46:14.324Z,52.80
2023-05-16T11:48:40.990Z,53.20
2023-05-16T11:51:07.559Z,52.80
2023-05-16T11:53:34.170Z,52.70
2023-05-16T11:56:00.707Z,53.20
2023-05-16T11:58:27.241Z,52.80
2023-05-16T12:00:53.800Z,53.30
2023-05-16T12:03:20.458Z,52.80
2023-05-16T12:05:47.215Z,52.90
2023-05-16T12:10:40.820Z,53.00
2023-05-16T12:13:07.338Z,53.10
2023-05-16T12:18:00.992Z,53.00
2023-05-16T12:20:27.594Z,53.20
2023-05-16T12:22:54.155Z,53.40
2023-05-16T12:25:20.721Z,52.90
2023-05-16T12:27:47.243Z,52.70
2023-05-16T12:30:13.765Z,53.30
2023-05-16T12:32:40.486Z,53.10
2023-05-16T12:35:07.064Z,53.40
2023-05-16T12:37:33.565Z,52.90
2023-05-16T12:40:00.237Z,53.10
2023-05-16T12:42:26.779Z,52.90
2023-05-16T12:44:53.286Z,52.70
2023-05-16T12:47:19.795Z,53.30
2023-05-16T12:49:46.300Z,53.20
2023-05-16T12:52:12.800Z,53.40
2023-05-16T12:54:39.292Z,52.60
2023-05-16T12:57:05.787Z,52.80
2023-05-16T12:59:32.293Z,53.00
2023-05-16T13:01:58.894Z,52.90
2023-05-16T13:04:25.551Z,52.80
2023-05-16T13:09:21.563Z,52.70
2023-05-16T13:11:48.100Z,53.30
2023-05-16T13:14:14.642Z,52.30
2023-05-16T13:16:41.172Z,53.10
2023-05-16T13:19:07.720Z,52.70
2023-05-16T13:21:34.320Z,53.20
2023-05-16T13:24:00.847Z,53.00
2023-05-16T13:26:27.386Z,52.70
2023-05-16T13:28:53.893Z,53.30
2023-05-16T13:31:20.502Z,53.30
2023-05-16T13:33:47.043Z,53.20
2023-05-16T13:36:13.566Z,52.80
2023-05-16T13:38:40.096Z,53.30
2023-05-16T13:41:06.673Z,53.80
2023-05-16T13:43:33.224Z,53.80
2023-05-16T13:45:59.812Z,53.70
2023-05-16T13:50:53.453Z,53.40
2023-05-16T13:53:19.968Z,53.30
2023-05-16T13:55:46.469Z,53.70
2023-05-16T13:58:13.029Z,53.40
2023-05-16T14:00:44.998Z,53.30
2023-05-16T14:03:17.469Z,52.80
2023-05-16T14:05:44.093Z,53.40
2023-05-16T14:08:10.646Z,53.20
2023-05-16T14:10:37.156Z,53.00
2023-05-16T14:13:03.670Z,52.80
2023-05-16T14:15:30.412Z,53.00
2023-05-16T14:17:57.210Z,53.10
2023-05-16T14:20:23.782Z,53.00
2023-05-16T14:22:50.302Z,53.40
2023-05-16T14:25:16.833Z,52.70
2023-05-16T14:27:43.324Z,53.00
2023-05-16T14:30:09.866Z,53.00
2023-05-16T14:32:36.476Z,52.90
2023-05-16T14:35:03.135Z,53.40
2023-05-16T14:37:29.667Z,53.00
2023-05-16T14:39:56.210Z,53.50
2023-05-16T14:42:22.733Z,52.70
2023-05-16T14:44:49.239Z,52.80
2023-05-16T14:47:15.766Z,53.40
2023-05-16T14:52:09.341Z,52.70
2023-05-16T14:54:35.843Z,52.80
2023-05-16T14:57:02.398Z,52.80
2023-05-16T14:59:28.977Z,52.80
2023-05-16T15:01:55.510Z,53.20
2023-05-16T15:04:22.136Z,53.40
2023-05-16T15:06:48.747Z,52.90
2023-05-16T15:09:15.241Z,52.80
2023-05-16T15:11:41.763Z,53.40
2023-05-16T15:14:08.307Z,52.90
2023-05-16T15:16:34.895Z,53.30
2023-05-16T15:19:01.614Z,52.90
2023-05-16T15:21:28.158Z,52.90
2023-05-16T15:23:54.675Z,53.20
2023-05-16T15:26:21.222Z,53.10
2023-05-16T15:28:47.712Z,53.00
2023-05-16T15:31:14.254Z,52.80
2023-05-16T15:33:40.833Z,52.80
2023-05-16T15:36:07.389Z,53.00
2023-05-16T15:38:33.906Z,53.30
2023-05-16T15:41:15.924Z,52.90
2023-05-16T15:43:46.920Z,52.90
2023-05-16T15:46:13.561Z,52.90
2023-05-16T15:48:40.112Z,52.90
2023-05-16T15:51:06.630Z,52.80
2023-05-16T15:53:33.132Z,53.00
2023-05-16T15:55:59.625Z,53.10
2023-05-16T15:58:26.127Z,52.80
2023-05-16T16:00:52.646Z,53.30
2023-05-16T16:03:19.302Z,53.50
2023-05-16T16:05:45.908Z,53.00
2023-05-16T16:08:12.434Z,53.30
2023-05-16T16:10:38.932Z,53.30
2023-05-16T16:13:05.443Z,53.70
2023-05-16T16:15:33.381Z,52.80
2023-05-16T16:18:00.292Z,53.80
2023-05-16T16:20:26.833Z,53.30
2023-05-16T16:22:53.369Z,53.20
2023-05-16T16:25:19.867Z,53.40
2023-05-16T16:27:46.377Z,53.10
2023-05-16T16:30:12.912Z,53.20
2023-05-16T16:32:39.482Z,52.90
2023-05-16T16:35:06.032Z,52.90
2023-05-16T16:39:59.688Z,52.80
2023-05-16T16:42:26.433Z,53.10
2023-05-16T16:47:20.002Z,53.00
2023-05-16T16:49:46.573Z,53.10
2023-05-16T16:52:13.092Z,53.70
2023-05-16T16:54:39.662Z,52.70
2023-05-16T16:57:06.357Z,52.60
2023-05-16T16:59:32.873Z,52.50
2023-05-16T17:01:59.503Z,52.50
2023-05-16T17:04:26.073Z,52.90
2023-05-16T17:06:52.637Z,52.90
2023-05-16T17:09:19.179Z,52.70
2023-05-16T17:11:45.677Z,53.20
2023-05-16T17:16:39.271Z,52.90
2023-05-16T17:19:05.856Z,52.80
2023-05-16T17:21:32.426Z,52.70
2023-05-16T17:23:58.915Z,52.70
2023-05-16T17:26:25.402Z,53.10
2023-05-16T17:28:51.925Z,52.50
2023-05-16T17:31:18.456Z,52.80
2023-05-16T17:33:45.012Z,52.80
2023-05-16T17:36:11.518Z,53.10
2023-05-16T17:38:38.119Z,51.90
2023-05-16T17:41:04.622Z,52.70
2023-05-16T17:43:31.148Z,52.60
2023-05-16T17:45:57.756Z,52.50
2023-05-16T17:48:24.319Z,52.80
2023-05-16T17:50:50.890Z,52.80
2023-05-16T17:53:17.461Z,53.00
2023-05-16T17:55:44.009Z,52.90
2023-05-16T17:58:10.623Z,52.40
2023-05-16T18:00:37.198Z,52.40
2023-05-16T18:03:03.723Z,53.00
2023-05-16T18:05:30.577Z,53.40
2023-05-16T18:07:57.358Z,52.70
2023-05-16T18:10:23.904Z,52.60
2023-05-16T18:12:50.447Z,52.50
2023-05-16T18:15:16.994Z,53.00
2023-05-16T18:17:43.557Z,52.60
2023-05-16T18:20:10.181Z,52.50
2023-05-16T18:22:36.780Z,53.20
2023-05-16T18:25:03.400Z,53.10
2023-05-16T18:27:29.907Z,52.60
2023-05-16T18:29:56.430Z,53.20
2023-05-16T18:32:23.039Z,52.40
2023-05-16T18:34:49.588Z,52.40
2023-05-16T18:37:16.261Z,53.20
2023-05-16T18:39:42.816Z,53.30
2023-05-16T18:42:09.321Z,53.00
2023-05-16T18:44:35.859Z,52.60
2023-05-16T18:47:02.469Z,53.90
2023-05-16T18:49:29.095Z,52.50
2023-05-16T18:51:55.601Z,53.40
2023-05-16T18:54:23.342Z,53.50
2023-05-16T18:56:50.913Z,54.00
2023-05-16T18:59:17.527Z,54.00
2023-05-16T19:01:44.048Z,54.10
2023-05-16T19:04:10.631Z,53.60
2023-05-16T19:06:37.208Z,54.20
2023-05-16T19:09:03.734Z,53.80
2023-05-16T19:11:30.261Z,54.30
2023-05-16T19:13:56.794Z,53.60
2023-05-16T19:16:23.294Z,54.00
2023-05-16T19:18:49.983Z,53.40
2023-05-16T19:21:16.568Z,53.00
2023-05-16T19:23:43.351Z,53.40
2023-05-16T19:26:09.891Z,53.70
2023-05-16T19:28:36.400Z,53.30
2023-05-16T19:31:04.987Z,53.90
2023-05-16T19:33:31.511Z,53.50
2023-05-16T19:35:58.033Z,53.60
2023-05-16T19:38:24.519Z,53.30
2023-05-16T19:40:51.154Z,53.10
2023-05-16T19:43:17.673Z,53.10
2023-05-16T19:45:44.211Z,53.10
2023-05-16T19:48:10.790Z,53.10
2023-05-16T19:50:37.335Z,53.70
2023-05-16T19:53:03.843Z,52.80
2023-05-16T19:55:30.629Z,53.10
2023-05-16T19:57:57.333Z,52.50
2023-05-16T20:00:23.879Z,52.60
2023-05-16T20:02:50.439Z,53.10
2023-05-16T20:05:17.209Z,53.30
2023-05-16T20:07:43.789Z,53.60
2023-05-16T20:10:10.288Z,53.60
2023-05-16T20:12:36.803Z,53.60
2023-05-16T20:15:03.353Z,54.40
2023-05-16T20:17:29.873Z,53.80
2023-05-16T20:19:56.685Z,54.00
2023-05-16T20:22:23.322Z,54.20
2023-05-16T20:27:16.892Z,53.60
2023-05-16T20:29:43.384Z,53.10
2023-05-16T20:32:09.879Z,53.10
2023-05-16T20:34:36.393Z,53.40
2023-05-16T20:37:02.905Z,52.30
2023-05-16T20:39:29.443Z,52.60
2023-05-16T20:41:55.989Z,52.90
2023-05-16T20:44:22.538Z,52.00
2023-05-16T20:46:49.078Z,51.90
2023-05-16T20:49:15.603Z,51.60
2023-05-16T20:51:42.142Z,52.10
2023-05-16T20:54:08.694Z,51.90
2023-05-16T20:56:35.292Z,51.90
2023-05-16T20:59:01.908Z,51.90
2023-05-16T21:01:28.456Z,52.40
2023-05-16T21:03:55.024Z,52.10
2023-05-16T21:06:21.563Z,52.30
2023-05-16T21:11:15.174Z,52.10
2023-05-16T21:13:41.670Z,51.80
2023-05-16T21:18:35.401Z,51.60
2023-05-16T21:21:02.003Z,51.80
2023-05-16T21:25:55.587Z,51.80
2023-05-16T21:28:22.121Z,51.70
2023-05-16T21:30:48.726Z,51.80
2023-05-16T21:33:15.296Z,52.00
2023-05-16T21:35:41.893Z,51.50
2023-05-16T21:38:08.456Z,50.80
2023-05-16T21:40:35.001Z,50.90
2023-05-16T21:43:01.590Z,51.80
2023-05-16T21:45:28.318Z,51.60
2023-05-16T21:47:55.144Z,51.60
2023-05-16T21:50:21.744Z,51.20
2023-05-16T21:52:48.300Z,51.60
2023-05-16T21:55:14.865Z,51.30
2023-05-16T21:57:41.416Z,51.50
2023-05-16T22:00:07.898Z,51.60
2023-05-16T22:02:34.513Z,51.60
2023-05-16T22:05:01.203Z,51.40
2023-05-16T22:07:27.781Z,51.80
2023-05-16T22:09:54.341Z,51.80
2023-05-16T22:12:20.873Z,51.50
2023-05-16T22:14:47.410Z,51.30
2023-05-16T22:17:13.977Z,51.70
2023-05-16T22:19:40.771Z,51.40
2023-05-16T22:22:07.393Z,51.80
2023-05-16T22:24:33.919Z,51.40
2023-05-16T22:27:00.436Z,51.60
2023-05-16T22:29:26.966Z,51.40
2023-05-16T22:34:20.534Z,51.60
2023-05-16T22:36:47.030Z,51.30
2023-05-16T22:39:13.558Z,51.40
2023-05-16T22:41:40.075Z,51.30
2023-05-16T22:44:06.559Z,51.30
2023-05-16T22:46:33.072Z,51.70
2023-05-16T22:48:59.694Z,51.50
2023-05-16T22:51:26.273Z,51.70
2023-05-16T22:53:52.779Z,51.50
2023-05-16T22:56:19.336Z,51.80
2023-05-16T22:58:45.882Z,51.40
2023-05-16T23:01:12.413Z,51.30
2023-05-16T23:03:39.053Z,51.40
2023-05-16T23:06:05.673Z,51.30
2023-05-16T23:08:32.241Z,51.50
2023-05-16T23:10:58.785Z,51.70
2023-05-16T23:13:25.313Z,51.50
2023-05-16T23:15:53.556Z,51.30
2023-05-16T23:18:20.136Z,51.10
2023-05-16T23:20:46.706Z,50.80
2023-05-16T23:25:40.318Z,51.30
2023-05-16T23:28:06.826Z,50.40
2023-05-16T23:30:33.368Z,51.20
2023-05-16T23:32:59.997Z,51.30
2023-05-16T23:35:26.826Z,51.40
2023-05-16T23:37:53.488Z,51.30
2023-05-16T23:40:19.992Z,51.70
2023-05-16T23:42:46.557Z,51.00
2023-05-16T23:45:13.073Z,51.70
2023-05-16T23:47:39.726Z,51.30
2023-05-16T23:50:06.368Z,51.30
2023-05-16T23:52:32.976Z,51.50
2023-05-16T23:54:59.551Z,51.10
2023-05-16T23:57:26.062Z,51.60
2023-05-16T23:59:52.598Z,51.30
